createdAt,value
2023-05-10T00:01:46.297Z,57.10
2023-05-10T00:04:30.067Z,57.50
2023-05-10T00:07:39.787Z,57.50
2023-05-10T00:13:24.572Z,58.00
2023-05-10T00:16:18.981Z,58.30
2023-05-10T00:19:13.245Z,58.20
2023-05-10T00:21:52.663Z,58.50
2023-05-10T00:24:47.214Z,58.30
2023-05-10T00:27:36.197Z,58.60
2023-05-10T00:33:40.071Z,58.90
2023-05-10T00:36:40.960Z,58.70
2023-05-10T00:39:46.075Z,58.80
2023-05-10T00:42:54.588Z,59.00
2023-05-10T00:45:31.902Z,59.00
2023-05-10T00:48:47.338Z,59.10
2023-05-10T00:51:52.556Z,59.30
2023-05-10T00:54:45.491Z,59.20
2023-05-10T01:04:13.842Z,59.40
2023-05-10T01:06:58.091Z,59.50
2023-05-10T01:10:19.199Z,59.60
2023-05-10T01:13:16.248Z,59.60
2023-05-10T01:16:01.378Z,59.90
2023-05-10T01:18:41.754Z,60.20
2023-05-10T01:21:40.943Z,60.10
2023-05-10T01:24:52.193Z,60.50
2023-05-10T01:28:00.748Z,60.50
2023-05-10T01:31:00.793Z,60.60
2023-05-10T01:34:30.066Z,60.50
2023-05-10T01:37:26.997Z,60.60
2023-05-10T01:40:47.486Z,60.60
2023-05-10T01:47:02.113Z,61.20
2023-05-10T01:49:56.552Z,61.40
2023-05-10T01:53:02.217Z,61.40
2023-05-10T01:55:47.731Z,61.70
2023-05-10T01:58:30.091Z,61.70
2023-05-10T02:01:21.676Z,61.70
2023-05-10T02:04:27.662Z,62.00
2023-05-10T02:07:06.955Z,62.00
2023-05-10T02:09:43.864Z,62.10
2023-05-10T02:12:21.901Z,62.30
2023-05-10T02:15:12.458Z,62.30
2023-05-10T02:17:47.121Z,62.60
2023-05-10T02:20:20.514Z,62.50
2023-05-10T02:23:09.319Z,62.70
2023-05-10T02:25:47.721Z,62.90
2023-05-10T02:28:26.600Z,63.00
2023-05-10T02:31:07.381Z,63.10
2023-05-10T02:33:52.443Z,63.00
2023-05-10T02:36:40.331Z,63.10
2023-05-10T02:39:24.302Z,63.30
2023-05-10T02:42:07.444Z,63.50
2023-05-10T02:44:44.910Z,63.60
2023-05-10T02:47:31.862Z,63.70
2023-05-10T02:50:59.775Z,63.70
2023-05-10T02:54:02.655Z,63.90
2023-05-10T02:57:05.396Z,64.10
2023-05-10T03:00:40.138Z,64.30
2023-05-10T03:03:25.674Z,64.20
2023-05-10T03:09:29.828Z,64.00
2023-05-10T03:12:24.309Z,63.70
2023-05-10T03:15:01.514Z,63.50
2023-05-10T03:17:37.493Z,63.30
2023-05-10T03:20:11.703Z,63.40
2023-05-10T03:22:48.605Z,63.50
2023-05-10T03:25:27.377Z,63.40
2023-05-10T03:28:16.006Z,63.30
2023-05-10T03:30:50.474Z,63.20
2023-05-10T03:33:40.960Z,63.00
2023-05-10T03:36:15.305Z,62.80
2023-05-10T03:38:50.072Z,62.50
2023-05-10T03:41:27.814Z,62.20
2023-05-10T03:44:06.420Z,62.00
2023-05-10T03:46:45.692Z,61.80
2023-05-10T03:49:17.254Z,61.60
2023-05-10T03:51:48.390Z,61.00
2023-05-10T03:54:21.606Z,61.30
2023-05-10T03:57:02.236Z,60.80
2023-05-10T03:59:41.534Z,60.40
2023-05-10T04:02:14.720Z,59.90
2023-05-10T04:04:45.954Z,59.90
2023-05-10T04:07:16.600Z,60.00
2023-05-10T04:09:47.946Z,59.80
2023-05-10T04:12:18.988Z,59.90
2023-05-10T04:14:50.132Z,59.20
2023-05-10T04:17:23.468Z,59.60
2023-05-10T04:19:55.887Z,59.10
2023-05-10T04:22:27.240Z,58.90
2023-05-10T04:24:58.247Z,58.20
2023-05-10T04:27:29.106Z,58.10
2023-05-10T04:30:00.296Z,58.30
2023-05-10T04:32:40.758Z,57.90
2023-05-10T04:35:12.227Z,57.60
2023-05-10T04:37:44.779Z,57.80
2023-05-10T04:40:16.788Z,57.40
2023-05-10T04:42:48.072Z,57.20
2023-05-10T04:45:24.780Z,57.40
2023-05-10T04:48:08.653Z,57.20
2023-05-10T04:50:55.236Z,56.90
2023-05-10T04:53:39.532Z,56.70
2023-05-10T04:56:14.730Z,56.90
2023-05-10T04:58:54.799Z,56.80
2023-05-10T05:01:30.929Z,56.80
2023-05-10T05:04:32.813Z,56.30
2023-05-10T05:07:13.658Z,56.20
2023-05-10T05:09:45.070Z,56.30
2023-05-10T05:12:16.401Z,56.10
2023-05-10T05:14:46.875Z,56.10
2023-05-10T05:17:17.940Z,55.90
2023-05-10T05:19:51.312Z,55.60
2023-05-10T05:22:28.638Z,55.70
2023-05-10T05:24:59.492Z,55.20
2023-05-10T05:27:30.714Z,55.10
2023-05-10T05:30:01.439Z,55.00
2023-05-10T05:32:33.810Z,55.40
2023-05-10T05:35:09.725Z,54.80
2023-05-10T05:37:43.576Z,53.60
2023-05-10T05:40:18.596Z,54.20
2023-05-10T05:42:49.944Z,54.10
2023-05-10T05:45:20.790Z,54.10
2023-05-10T05:47:56.398Z,53.70
2023-05-10T05:50:29.698Z,54.00
2023-05-10T05:53:00.917Z,54.30
2023-05-10T05:55:32.805Z,53.80
2023-05-10T05:58:04.297Z,53.80
2023-05-10T06:00:40.933Z,53.20
2023-05-10T06:03:14.881Z,53.30
2023-05-10T06:05:48.346Z,53.70
2023-05-10T06:08:21.758Z,53.40
2023-05-10T06:10:53.806Z,53.60
2023-05-10T06:13:25.094Z,53.30
2023-05-10T06:15:56.505Z,53.10
2023-05-10T06:18:27.628Z,53.30
2023-05-10T06:21:01.895Z,52.90
2023-05-10T06:23:33.604Z,52.70
2023-05-10T06:26:04.582Z,52.60
2023-05-10T06:28:35.818Z,52.50
2023-05-10T06:31:06.931Z,51.80
2023-05-10T06:33:38.096Z,52.70
2023-05-10T06:36:11.595Z,52.90
2023-05-10T06:38:43.044Z,51.80
2023-05-10T06:41:14.749Z,51.50
2023-05-10T06:43:47.166Z,51.60
2023-05-10T06:46:18.588Z,51.30
2023-05-10T06:48:49.739Z,51.30
2023-05-10T06:51:22.862Z,51.30
2023-05-10T06:53:54.609Z,51.90
2023-05-10T06:56:25.558Z,51.90
2023-05-10T06:58:57.163Z,51.60
2023-05-10T07:01:28.536Z,51.10
2023-05-10T07:04:04.327Z,50.80
2023-05-10T07:06:37.623Z,49.70
2023-05-10T07:09:10.884Z,49.80
2023-05-10T07:11:42.104Z,49.50
2023-05-10T07:14:15.520Z,49.40
2023-05-10T07:16:46.085Z,49.00
2023-05-10T07:19:17.040Z,47.20
2023-05-10T07:21:51.567Z,48.10
2023-05-10T07:24:22.545Z,48.70
2023-05-10T07:26:53.168Z,47.30
2023-05-10T07:29:24.339Z,46.20
2023-05-10T07:31:57.950Z,45.80
2023-05-10T07:34:31.518Z,45.60
2023-05-10T07:37:05.037Z,45.00
2023-05-10T07:39:36.281Z,44.70
2023-05-10T07:42:07.009Z,44.40
2023-05-10T07:44:37.914Z,43.80
2023-05-10T07:47:08.642Z,44.20
2023-05-10T07:49:39.689Z,44.30
2023-05-10T07:52:13.125Z,42.60
2023-05-10T07:54:43.982Z,41.10
2023-05-10T07:57:18.886Z,42.30
2023-05-10T07:59:49.784Z,41.90
2023-05-10T08:02:20.385Z,42.00
2023-05-10T08:04:51.795Z,42.20
2023-05-10T08:07:27.671Z,42.50
2023-05-10T08:09:58.600Z,42.70
2023-05-10T08:12:29.345Z,42.20
2023-05-10T08:15:00.282Z,42.60
2023-05-10T08:17:31.077Z,41.00
2023-05-10T08:20:02.174Z,41.40
2023-05-10T08:22:35.495Z,41.30
2023-05-10T08:25:07.546Z,41.70
2023-05-10T08:27:38.033Z,40.70
2023-05-10T08:30:09.734Z,41.20
2023-05-10T08:32:41.592Z,41.40
2023-05-10T08:35:12.627Z,41.50
2023-05-10T08:37:45.755Z,42.30
2023-05-10T08:40:16.671Z,42.40
2023-05-10T08:42:49.402Z,42.80
2023-05-10T08:45:21.164Z,41.90
2023-05-10T08:47:54.228Z,41.70
2023-05-10T08:50:25.875Z,42.10
2023-05-10T08:52:59.774Z,41.70
2023-05-10T08:55:31.406Z,42.10
2023-05-10T08:58:01.921Z,41.80
2023-05-10T09:00:33.339Z,40.60
2023-05-10T09:03:04.342Z,40.80
2023-05-10T09:05:35.257Z,41.00
2023-05-10T09:08:11.319Z,40.80
2023-05-10T09:10:47.321Z,40.80
2023-05-10T09:13:18.240Z,41.10
2023-05-10T09:15:49.301Z,41.00
2023-05-10T09:18:21.577Z,40.80
2023-05-10T09:20:52.775Z,40.40
2023-05-10T09:23:32.722Z,40.20
2023-05-10T09:26:07.511Z,40.60
2023-05-10T09:28:38.533Z,40.20
2023-05-10T09:31:09.487Z,40.20
2023-05-10T09:33:48.390Z,40.10
2023-05-10T09:36:19.548Z,40.30
2023-05-10T09:38:54.016Z,40.50
2023-05-10T09:41:25.395Z,40.80
2023-05-10T09:43:59.888Z,40.60
2023-05-10T09:46:30.891Z,41.20
2023-05-10T09:49:02.391Z,40.80
2023-05-10T09:51:36.080Z,40.80
2023-05-10T09:54:17.295Z,41.10
2023-05-10T09:56:48.237Z,41.10
2023-05-10T09:59:18.961Z,41.20
2023-05-10T10:01:54.010Z,41.30
2023-05-10T10:04:25.135Z,41.00
2023-05-10T10:07:05.221Z,40.80
2023-05-10T10:09:38.839Z,39.90
2023-05-10T10:12:10.189Z,40.90
2023-05-10T10:14:40.793Z,40.10
2023-05-10T10:17:11.790Z,39.90
2023-05-10T10:19:42.391Z,39.40
2023-05-10T10:22:15.961Z,39.70
2023-05-10T10:24:49.417Z,40.10
2023-05-10T10:27:24.924Z,39.60
2023-05-10T10:30:00.624Z,39.80
2023-05-10T10:32:34.421Z,40.10
2023-05-10T10:35:05.516Z,39.00
2023-05-10T10:37:49.454Z,40.10
2023-05-10T10:40:34.894Z,39.80
2023-05-10T10:43:20.841Z,39.40
2023-05-10T10:46:12.048Z,39.20
2023-05-10T10:48:43.473Z,39.00
2023-05-10T10:51:14.078Z,39.40
2023-05-10T10:53:48.240Z,38.70
2023-05-10T10:56:25.960Z,39.20
2023-05-10T10:58:57.379Z,39.80
2023-05-10T11:01:28.176Z,39.60
2023-05-10T11:04:14.780Z,39.10
2023-05-10T11:06:45.909Z,39.20
2023-05-10T11:09:18.840Z,39.40
2023-05-10T11:11:56.586Z,39.30
2023-05-10T11:14:29.565Z,39.50
2023-05-10T11:17:03.344Z,38.90
2023-05-10T11:19:40.349Z,39.20
2023-05-10T11:22:18.365Z,38.90
2023-05-10T11:25:00.689Z,38.90
2023-05-10T11:27:35.602Z,39.10
2023-05-10T11:30:09.124Z,38.80
2023-05-10T11:32:40.920Z,39.30
2023-05-10T11:35:12.749Z,39.20
2023-05-10T11:37:45.115Z,39.40
2023-05-10T11:40:16.599Z,38.60
2023-05-10T11:42:49.920Z,39.30
2023-05-10T11:45:23.491Z,39.60
2023-05-10T11:47:55.263Z,39.70
2023-05-10T11:50:27.312Z,39.30
2023-05-10T11:52:58.767Z,39.10
2023-05-10T11:55:31.678Z,39.00
2023-05-10T11:58:10.322Z,39.80
2023-05-10T12:00:49.728Z,39.40
2023-05-10T12:03:23.131Z,39.90
2023-05-10T12:05:54.369Z,39.20
2023-05-10T12:08:32.127Z,39.30
2023-05-10T12:11:11.575Z,38.80
2023-05-10T12:13:47.859Z,38.90
2023-05-10T12:16:19.986Z,39.50
2023-05-10T12:18:54.472Z,39.20
2023-05-10T12:21:25.495Z,39.60
2023-05-10T12:23:56.712Z,39.50
2023-05-10T12:26:28.545Z,39.10
2023-05-10T12:29:19.091Z,39.70
2023-05-10T12:31:53.522Z,40.50
2023-05-10T12:34:30.778Z,38.90
2023-05-10T12:37:05.274Z,39.20
2023-05-10T12:39:42.936Z,39.40
2023-05-10T12:42:13.985Z,39.90
2023-05-10T12:44:47.281Z,39.60
2023-05-10T12:47:18.076Z,39.60
2023-05-10T12:49:52.424Z,39.40
2023-05-10T12:52:23.521Z,39.70
2023-05-10T12:54:54.064Z,39.40
2023-05-10T12:57:27.896Z,39.90
2023-05-10T13:00:04.822Z,39.60
2023-05-10T13:02:36.276Z,38.90
2023-05-10T13:05:09.449Z,39.40
2023-05-10T13:07:40.374Z,39.60
2023-05-10T13:10:11.433Z,39.20
2023-05-10T13:12:42.309Z,38.90
2023-05-10T13:15:16.339Z,38.50
2023-05-10T13:17:49.468Z,39.30
2023-05-10T13:20:20.105Z,38.80
2023-05-10T13:22:52.283Z,38.50
2023-05-10T13:25:23.096Z,38.30
2023-05-10T13:27:54.200Z,39.30
2023-05-10T13:30:27.773Z,39.30
2023-05-10T13:32:58.866Z,39.40
2023-05-10T13:35:29.431Z,39.70
2023-05-10T13:38:00.701Z,39.20
2023-05-10T13:40:31.173Z,39.00
2023-05-10T13:43:02.035Z,38.60
2023-05-10T13:45:35.079Z,38.30
2023-05-10T13:48:06.417Z,38.70
2023-05-10T13:50:36.899Z,39.20
2023-05-10T13:53:08.243Z,39.20
2023-05-10T13:55:38.835Z,39.60
2023-05-10T13:58:09.755Z,39.00
2023-05-10T14:00:43.125Z,38.80
2023-05-10T14:03:15.368Z,38.20
2023-05-10T14:05:48.977Z,38.50
2023-05-10T14:08:20.135Z,38.30
2023-05-10T14:10:51.913Z,37.80
2023-05-10T14:13:28.170Z,38.60
2023-05-10T14:16:01.966Z,38.50
2023-05-10T14:18:32.976Z,38.80
2023-05-10T14:21:06.173Z,38.80
2023-05-10T14:23:36.956Z,38.90
2023-05-10T14:26:07.709Z,39.20
2023-05-10T14:28:38.636Z,39.30
2023-05-10T14:31:13.083Z,39.70
2023-05-10T14:33:46.877Z,39.30
2023-05-10T14:36:17.579Z,39.10
2023-05-10T14:38:48.400Z,39.60
2023-05-10T14:41:19.625Z,39.60
2023-05-10T14:43:51.817Z,39.60
2023-05-10T14:46:25.076Z,39.40
2023-05-10T14:48:55.958Z,39.10
2023-05-10T14:51:26.431Z,39.10
2023-05-10T14:53:57.718Z,39.70
2023-05-10T14:56:29.158Z,39.60
2023-05-10T14:59:00.735Z,39.00
2023-05-10T15:01:36.013Z,39.40
2023-05-10T15:04:07.678Z,39.60
2023-05-10T15:06:38.849Z,39.40
2023-05-10T15:09:10.574Z,39.20
2023-05-10T15:11:41.167Z,39.80
2023-05-10T15:14:12.087Z,39.60
2023-05-10T15:16:45.170Z,39.70
2023-05-10T15:19:16.407Z,39.70
2023-05-10T15:21:47.184Z,39.50
2023-05-10T15:24:18.067Z,39.10
2023-05-10T15:26:50.334Z,39.30
2023-05-10T15:29:22.329Z,39.60
2023-05-10T15:31:55.690Z,39.60
2023-05-10T15:34:29.690Z,39.50
2023-05-10T15:37:02.350Z,39.10
2023-05-10T15:39:33.223Z,39.30
2023-05-10T15:42:05.195Z,39.60
2023-05-10T15:44:36.375Z,39.70
2023-05-10T15:47:09.677Z,39.90
2023-05-10T15:49:40.992Z,39.70
2023-05-10T15:52:17.250Z,40.00
2023-05-10T15:54:48.302Z,39.90
2023-05-10T15:57:19.053Z,39.90
2023-05-10T15:59:51.120Z,39.80
2023-05-10T16:02:24.924Z,39.90
2023-05-10T16:04:55.963Z,39.90
2023-05-10T16:07:27.550Z,40.10
2023-05-10T16:10:04.326Z,40.10
2023-05-10T16:12:36.514Z,39.80
2023-05-10T16:15:07.844Z,39.60
2023-05-10T16:17:43.952Z,39.90
2023-05-10T16:20:15.268Z,40.10
2023-05-10T16:22:48.513Z,40.00
2023-05-10T16:25:22.955Z,40.10
2023-05-10T16:27:54.178Z,39.90
2023-05-10T16:30:27.682Z,39.80
2023-05-10T16:33:01.370Z,40.10
2023-05-10T16:35:32.975Z,39.80
2023-05-10T16:38:05.174Z,40.10
2023-05-10T16:40:59.280Z,40.50
2023-05-10T16:43:29.210Z,40.40
2023-05-10T16:46:00.464Z,40.50
2023-05-10T16:48:34.049Z,40.60
2023-05-10T16:51:05.946Z,40.60
2023-05-10T16:53:36.670Z,40.50
2023-05-10T16:56:12.638Z,40.10
2023-05-10T16:58:45.829Z,40.30
2023-05-10T17:01:18.335Z,40.50
2023-05-10T17:07:16.229Z,40.50
2023-05-10T17:09:48.651Z,41.00
2023-05-10T17:12:20.663Z,41.00
2023-05-10T17:14:52.420Z,40.90
2023-05-10T17:17:23.918Z,40.90
2023-05-10T17:19:55.229Z,41.20
2023-05-10T17:22:28.939Z,41.50
2023-05-10T17:25:03.381Z,41.50
2023-05-10T17:27:34.155Z,41.40
2023-05-10T17:30:05.244Z,41.50
2023-05-10T17:32:36.732Z,41.80
2023-05-10T17:35:08.847Z,41.60
2023-05-10T17:37:44.609Z,41.70
2023-05-10T17:40:19.000Z,41.70
2023-05-10T17:42:50.145Z,41.90
2023-05-10T17:45:22.654Z,42.10
2023-05-10T17:47:53.445Z,41.80
2023-05-10T17:50:24.865Z,42.00
2023-05-10T17:52:58.410Z,42.20
2023-05-10T17:55:31.221Z,42.10
2023-05-10T17:58:02.128Z,42.30
2023-05-10T18:00:33.553Z,42.60
2023-05-10T18:03:05.488Z,42.60
2023-05-10T18:05:39.192Z,42.50
2023-05-10T18:08:13.061Z,42.70
2023-05-10T18:10:44.906Z,42.90
2023-05-10T18:13:18.602Z,43.20
2023-05-10T18:15:50.537Z,43.30
2023-05-10T18:18:21.942Z,43.40
2023-05-10T18:20:56.901Z,43.50
2023-05-10T18:23:30.508Z,43.80
2023-05-10T18:26:01.901Z,43.70
2023-05-10T18:28:37.310Z,43.90
2023-05-10T18:31:09.565Z,44.10
2023-05-10T18:33:43.509Z,44.10
2023-05-10T18:36:15.498Z,44.20
2023-05-10T18:38:50.462Z,44.30
2023-05-10T18:41:23.115Z,44.50
2023-05-10T18:43:56.420Z,44.70
2023-05-10T18:46:32.491Z,44.70
2023-05-10T18:49:08.946Z,44.80
2023-05-10T18:51:41.100Z,45.00
2023-05-10T18:57:17.330Z,45.20
2023-05-10T18:59:49.304Z,45.40
2023-05-10T19:02:20.503Z,45.50
2023-05-10T19:04:53.027Z,45.60
2023-05-10T19:07:24.074Z,46.00
2023-05-10T19:09:55.826Z,46.10
2023-05-10T19:12:29.040Z,46.10
2023-05-10T19:15:00.017Z,46.20
2023-05-10T19:17:31.863Z,46.20
2023-05-10T19:20:04.404Z,46.40
2023-05-10T19:22:45.362Z,46.40
2023-05-10T19:25:29.884Z,46.30
2023-05-10T19:28:03.305Z,46.40
2023-05-10T19:30:35.074Z,46.60
2023-05-10T19:33:06.768Z,46.70
2023-05-10T19:35:39.002Z,46.80
2023-05-10T19:38:11.334Z,47.00
2023-05-10T19:40:43.634Z,47.20
2023-05-10T19:43:16.851Z,47.30
2023-05-10T19:45:47.936Z,47.40
2023-05-10T19:48:18.832Z,47.70
2023-05-10T19:50:50.980Z,47.80
2023-05-10T19:53:22.414Z,48.10
2023-05-10T19:55:53.648Z,48.20
2023-05-10T19:58:28.911Z,48.40
2023-05-10T20:01:00.006Z,48.60
2023-05-10T20:03:31.114Z,48.60
2023-05-10T20:06:02.573Z,48.90
2023-05-10T20:08:34.108Z,49.10
2023-05-10T20:11:05.834Z,49.20
2023-05-10T20:13:40.324Z,49.30
2023-05-10T20:16:12.528Z,49.30
2023-05-10T20:18:43.518Z,49.40
2023-05-10T20:21:15.297Z,50.20
2023-05-10T20:23:46.868Z,49.60
2023-05-10T20:26:18.383Z,49.80
2023-05-10T20:28:52.780Z,49.70
2023-05-10T20:31:24.797Z,49.90
2023-05-10T20:33:56.212Z,50.00
2023-05-10T20:36:28.058Z,50.20
2023-05-10T20:38:59.134Z,50.40
2023-05-10T20:41:31.720Z,50.60
2023-05-10T20:44:06.312Z,50.70
2023-05-10T20:46:38.107Z,51.00
2023-05-10T20:49:11.646Z,51.00
2023-05-10T20:51:43.491Z,51.30
2023-05-10T20:54:14.294Z,51.40
2023-05-10T20:56:45.461Z,51.50
2023-05-10T20:59:19.235Z,52.40
2023-05-10T21:01:50.606Z,51.90
2023-05-10T21:04:26.043Z,52.20
2023-05-10T21:06:58.879Z,52.40
2023-05-10T21:09:31.814Z,52.30
2023-05-10T21:12:04.676Z,52.50
2023-05-10T21:14:38.340Z,52.60
2023-05-10T21:17:09.310Z,52.60
2023-05-10T21:19:40.393Z,52.70
2023-05-10T21:22:11.903Z,52.90
2023-05-10T21:24:42.663Z,53.00
2023-05-10T21:27:13.741Z,53.10
2023-05-10T21:29:46.923Z,53.30
2023-05-10T21:32:18.149Z,53.40
2023-05-10T21:34:48.726Z,53.60
2023-05-10T21:37:19.902Z,53.50
2023-05-10T21:39:50.497Z,53.70
2023-05-10T21:42:22.928Z,53.70
2023-05-10T21:44:56.120Z,53.70
2023-05-10T21:47:27.844Z,53.80
2023-05-10T21:49:58.406Z,53.90
2023-05-10T21:52:29.514Z,54.00
2023-05-10T21:55:00.147Z,54.00
2023-05-10T21:57:31.186Z,54.10
2023-05-10T22:00:05.243Z,54.20
2023-05-10T22:02:36.490Z,54.10
2023-05-10T22:05:07.399Z,54.20
2023-05-10T22:07:38.520Z,54.30
2023-05-10T22:10:09.802Z,54.50
2023-05-10T22:12:40.724Z,54.50
2023-05-10T22:15:14.730Z,54.60
2023-05-10T22:17:45.863Z,54.60
2023-05-10T22:20:17.387Z,54.50
2023-05-10T22:22:48.580Z,54.60
2023-05-10T22:25:19.934Z,54.70
2023-05-10T22:27:51.031Z,54.80
2023-05-10T22:30:24.378Z,55.00
2023-05-10T22:32:55.690Z,55.10
2023-05-10T22:35:26.214Z,55.20
2023-05-10T22:37:57.977Z,55.40
2023-05-10T22:40:28.872Z,55.50
2023-05-10T22:42:59.911Z,55.70
2023-05-10T22:45:33.382Z,55.60
2023-05-10T22:48:06.781Z,55.80
2023-05-10T22:50:38.153Z,55.90
2023-05-10T22:53:09.143Z,55.90
2023-05-10T22:55:40.476Z,56.00
2023-05-10T22:58:11.499Z,56.10
2023-05-10T23:00:44.610Z,56.10
2023-05-10T23:03:15.601Z,56.30
2023-05-10T23:05:46.197Z,56.40
2023-05-10T23:08:17.621Z,56.60
2023-05-10T23:10:48.215Z,56.90
2023-05-10T23:13:20.246Z,57.10
2023-05-10T23:15:53.441Z,57.20
2023-05-10T23:18:25.305Z,57.40
2023-05-10T23:20:56.183Z,57.50
2023-05-10T23:23:27.130Z,57.40
2023-05-10T23:25:58.215Z,57.50
2023-05-10T23:28:29.341Z,57.70
2023-05-10T23:31:02.599Z,57.90
2023-05-10T23:33:33.703Z,58.10
2023-05-10T23:36:04.329Z,58.20
2023-05-10T23:38:35.392Z,58.30
2023-05-10T23:41:06.080Z,58.60
2023-05-10T23:43:37.553Z,58.70
2023-05-10T23:46:10.957Z,58.60
2023-05-10T23:48:41.842Z,58.80
2023-05-10T23:51:12.390Z,58.80
2023-05-10T23:53:44.737Z,59.10
2023-05-10T23:56:15.263Z,59.40
2023-05-10T23:58:46.766Z,59.40
